sensor_id;sensor_type;location;lat;lon;timestamp;P1;durP1;ratioP1;P2;durP2;ratioP2
66957;SDS011;53892;43.258;-2.932;2022-12-07T00:00:32;17.70;;;5.95;;
66957;SDS011;53892;43.258;-2.932;2022-12-07T00:03:01;14.50;;;6.10;;
66957;SDS011;53892;43.258;-2.932;2022-12-07T00:05:29;11.93;;;5.60;;
66957;SDS011;53892;43.258;-2.932;2022-12-07T00:07:55;13.07;;;6.15;;
66957;SDS011;53892;43.258;-2.932;2022-12-07T00:10:21;10.63;;;5.28;;
66957;SDS011;53892;43.258;-2.932;2022-12-07T00:12:47;11.32;;;5.60;;
66957;SDS011;53892;43.258;-2.932;2022-12-07T00:15:15;11.98;;;5.60;;
66957;SDS011;53892;43.258;-2.932;2022-12-07T00:17:41;13.60;;;5.30;;
66957;SDS011;53892;43.258;-2.932;2022-12-07T00:20:07;16.08;;;5.15;;
66957;SDS011;53892;43.258;-2.932;2022-12-07T00:22:33;12.60;;;4.40;;
66957;SDS011;53892;43.258;-2.932;2022-12-07T00:25:00;13.32;;;5.63;;
66957;SDS011;53892;43.258;-2.932;2022-12-07T00:27:26;12.90;;;5.28;;
66957;SDS011;53892;43.258;-2.932;2022-12-07T00:29:53;11.98;;;5.30;;
66957;SDS011;53892;43.258;-2.932;2022-12-07T00:32:19;14.13;;;5.15;;
66957;SDS011;53892;43.258;-2.932;2022-12-07T00:34:45;9.60;;;4.32;;
66957;SDS011;53892;43.258;-2.932;2022-12-07T00:37:11;11.95;;;4.82;;
66957;SDS011;53892;43.258;-2.932;2022-12-07T00:39:38;12.60;;;4.65;;
66957;SDS011;53892;43.258;-2.932;2022-12-07T00:42:04;9.40;;;4.43;;
66957;SDS011;53892;43.258;-2.932;2022-12-07T00:44:30;12.20;;;4.57;;
66957;SDS011;53892;43.258;-2.932;2022-12-07T00:46:56;10.63;;;3.90;;
66957;SDS011;53892;43.258;-2.932;2022-12-07T00:49:22;15.85;;;4.22;;
66957;SDS011;53892;43.258;-2.932;2022-12-07T00:51:48;10.95;;;4.07;;
66957;SDS011;53892;43.258;-2.932;2022-12-07T00:54:15;9.82;;;3.97;;
66957;SDS011;53892;43.258;-2.932;2022-12-07T00:56:41;15.75;;;4.30;;
66957;SDS011;53892;43.258;-2.932;2022-12-07T00:59:10;11.38;;;4.18;;
66957;SDS011;53892;43.258;-2.932;2022-12-07T01:01:39;8.65;;;3.97;;
66957;SDS011;53892;43.258;-2.932;2022-12-07T01:04:08;10.45;;;3.90;;
66957;SDS011;53892;43.258;-2.932;2022-12-07T01:06:34;11.85;;;4.05;;
66957;SDS011;53892;43.258;-2.932;2022-12-07T01:09:00;10.75;;;4.30;;
66957;SDS011;53892;43.258;-2.932;2022-12-07T01:11:28;13.85;;;3.95;;
66957;SDS011;53892;43.258;-2.932;2022-12-07T01:13:55;9.38;;;4.28;;
66957;SDS011;53892;43.258;-2.932;2022-12-07T01:16:23;16.95;;;4.20;;
66957;SDS011;53892;43.258;-2.932;2022-12-07T01:18:50;9.13;;;4.75;;
66957;SDS011;53892;43.258;-2.932;2022-12-07T01:21:21;9.48;;;3.85;;
66957;SDS011;53892;43.258;-2.932;2022-12-07T01:23:48;11.65;;;4.07;;
66957;SDS011;53892;43.258;-2.932;2022-12-07T01:26:16;10.43;;;3.95;;
66957;SDS011;53892;43.258;-2.932;2022-12-07T01:28:42;9.73;;;4.13;;
66957;SDS011;53892;43.258;-2.932;2022-12-07T01:31:13;8.55;;;4.22;;
66957;SDS011;53892;43.258;-2.932;2022-12-07T01:33:43;19.58;;;9.52;;
66957;SDS011;53892;43.258;-2.932;2022-12-07T01:36:15;21.65;;;11.73;;
66957;SDS011;53892;43.258;-2.932;2022-12-07T01:38:41;20.67;;;11.05;;
66957;SDS011;53892;43.258;-2.932;2022-12-07T01:41:08;18.02;;;10.68;;
66957;SDS011;53892;43.258;-2.932;2022-12-07T01:43:34;15.02;;;8.07;;
66957;SDS011;53892;43.258;-2.932;2022-12-07T01:46:01;15.63;;;8.10;;
66957;SDS011;53892;43.258;-2.932;2022-12-07T01:48:38;15.20;;;6.63;;
66957;SDS011;53892;43.258;-2.932;2022-12-07T01:51:10;11.30;;;7.07;;
66957;SDS011;53892;43.258;-2.932;2022-12-07T01:53:38;14.57;;;8.25;;
66957;SDS011;53892;43.258;-2.932;2022-12-07T01:56:06;19.65;;;9.13;;
66957;SDS011;53892;43.258;-2.932;2022-12-07T01:58:34;15.88;;;8.30;;
66957;SDS011;53892;43.258;-2.932;2022-12-07T02:01:00;17.85;;;8.45;;
66957;SDS011;53892;43.258;-2.932;2022-12-07T02:03:34;16.15;;;8.23;;
66957;SDS011;53892;43.258;-2.932;2022-12-07T02:06:02;16.33;;;9.15;;
66957;SDS011;53892;43.258;-2.932;2022-12-07T02:08:28;20.80;;;10.23;;
66957;SDS011;53892;43.258;-2.932;2022-12-07T02:10:54;25.27;;;12.27;;
66957;SDS011;53892;43.258;-2.932;2022-12-07T02:13:21;20.73;;;12.02;;
66957;SDS011;53892;43.258;-2.932;2022-12-07T02:18:35;27.15;;;13.48;;
66957;SDS011;53892;43.258;-2.932;2022-12-07T02:31:46;20.02;;;9.63;;
66957;SDS011;53892;43.258;-2.932;2022-12-07T02:34:19;15.75;;;7.25;;
66957;SDS011;53892;43.258;-2.932;2022-12-07T02:36:48;15.05;;;6.80;;
66957;SDS011;53892;43.258;-2.932;2022-12-07T02:39:31;19.17;;;6.38;;
66957;SDS011;53892;43.258;-2.932;2022-12-07T02:42:03;11.70;;;5.57;;
66957;SDS011;53892;43.258;-2.932;2022-12-07T02:44:33;10.40;;;5.95;;
66957;SDS011;53892;43.258;-2.932;2022-12-07T02:47:01;15.52;;;5.28;;
66957;SDS011;53892;43.258;-2.932;2022-12-07T02:49:28;11.50;;;4.93;;
66957;SDS011;53892;43.258;-2.932;2022-12-07T02:51:55;9.00;;;4.60;;
66957;SDS011;53892;43.258;-2.932;2022-12-07T02:54:21;13.75;;;5.47;;
66957;SDS011;53892;43.258;-2.932;2022-12-07T02:56:57;9.60;;;5.65;;
66957;SDS011;53892;43.258;-2.932;2022-12-07T03:10:00;15.00;;;9.05;;
66957;SDS011;53892;43.258;-2.932;2022-12-07T03:12:53;16.97;;;9.37;;
66957;SDS011;53892;43.258;-2.932;2022-12-07T03:15:25;18.90;;;10.13;;
66957;SDS011;53892;43.258;-2.932;2022-12-07T03:17:52;20.02;;;10.38;;
66957;SDS011;53892;43.258;-2.932;2022-12-07T03:20:21;20.70;;;9.15;;
66957;SDS011;53892;43.258;-2.932;2022-12-07T03:22:47;16.42;;;8.18;;
66957;SDS011;53892;43.258;-2.932;2022-12-07T03:25:14;10.45;;;5.47;;
66957;SDS011;53892;43.258;-2.932;2022-12-07T03:27:43;11.57;;;5.60;;
66957;SDS011;53892;43.258;-2.932;2022-12-07T03:30:12;13.23;;;4.63;;
66957;SDS011;53892;43.258;-2.932;2022-12-07T03:32:45;11.07;;;4.85;;
66957;SDS011;53892;43.258;-2.932;2022-12-07T03:37:43;11.30;;;5.13;;
66957;SDS011;53892;43.258;-2.932;2022-12-07T03:42:37;11.85;;;5.38;;
66957;SDS011;53892;43.258;-2.932;2022-12-07T03:45:03;13.13;;;5.65;;
66957;SDS011;53892;43.258;-2.932;2022-12-07T03:50:07;8.18;;;4.13;;
66957;SDS011;53892;43.258;-2.932;2022-12-07T03:52:38;11.63;;;3.85;;
66957;SDS011;53892;43.258;-2.932;2022-12-07T03:57:31;9.05;;;4.20;;
66957;SDS011;53892;43.258;-2.932;2022-12-07T03:59:59;8.15;;;3.53;;
66957;SDS011;53892;43.258;-2.932;2022-12-07T04:02:26;10.10;;;3.72;;
66957;SDS011;53892;43.258;-2.932;2022-12-07T04:04:53;8.77;;;4.18;;
66957;SDS011;53892;43.258;-2.932;2022-12-07T04:07:19;9.63;;;3.63;;
66957;SDS011;53892;43.258;-2.932;2022-12-07T04:09:45;8.68;;;4.38;;
66957;SDS011;53892;43.258;-2.932;2022-12-07T04:12:11;10.32;;;4.68;;
66957;SDS011;53892;43.258;-2.932;2022-12-07T04:14:37;11.77;;;4.80;;
66957;SDS011;53892;43.258;-2.932;2022-12-07T04:17:03;15.80;;;5.43;;
66957;SDS011;53892;43.258;-2.932;2022-12-07T04:19:30;19.08;;;9.57;;
66957;SDS011;53892;43.258;-2.932;2022-12-07T04:21:57;24.38;;;10.77;;
66957;SDS011;53892;43.258;-2.932;2022-12-07T04:24:24;20.75;;;10.73;;
66957;SDS011;53892;43.258;-2.932;2022-12-07T04:26:50;24.50;;;9.52;;
66957;SDS011;53892;43.258;-2.932;2022-12-07T04:29:17;20.90;;;7.75;;
66957;SDS011;53892;43.258;-2.932;2022-12-07T04:31:43;14.88;;;7.50;;
66957;SDS011;53892;43.258;-2.932;2022-12-07T04:34:10;16.45;;;7.43;;
66957;SDS011;53892;43.258;-2.932;2022-12-07T04:36:37;18.60;;;7.07;;
66957;SDS011;53892;43.258;-2.932;2022-12-07T04:39:03;15.35;;;7.70;;
66957;SDS011;53892;43.258;-2.932;2022-12-07T04:41:30;19.75;;;9.48;;
66957;SDS011;53892;43.258;-2.932;2022-12-07T04:43:57;20.60;;;10.52;;
66957;SDS011;53892;43.258;-2.932;2022-12-07T04:46:24;21.23;;;11.95;;
66957;SDS011;53892;43.258;-2.932;2022-12-07T04:48:51;23.17;;;10.25;;
66957;SDS011;53892;43.258;-2.932;2022-12-07T04:51:22;20.05;;;10.40;;
66957;SDS011;53892;43.258;-2.932;2022-12-07T04:53:48;19.40;;;8.05;;
66957;SDS011;53892;43.258;-2.932;2022-12-07T04:56:15;17.50;;;8.25;;
66957;SDS011;53892;43.258;-2.932;2022-12-07T04:58:42;13.73;;;6.18;;
66957;SDS011;53892;43.258;-2.932;2022-12-07T05:01:08;12.93;;;4.50;;
66957;SDS011;53892;43.258;-2.932;2022-12-07T05:03:35;11.52;;;4.95;;
66957;SDS011;53892;43.258;-2.932;2022-12-07T05:06:01;10.30;;;3.95;;
66957;SDS011;53892;43.258;-2.932;2022-12-07T05:08:27;9.55;;;4.45;;
66957;SDS011;53892;43.258;-2.932;2022-12-07T05:10:54;9.20;;;4.85;;
66957;SDS011;53892;43.258;-2.932;2022-12-07T05:13:20;13.90;;;4.78;;
66957;SDS011;53892;43.258;-2.932;2022-12-07T05:15:47;9.18;;;4.45;;
66957;SDS011;53892;43.258;-2.932;2022-12-07T05:18:13;10.75;;;4.75;;
66957;SDS011;53892;43.258;-2.932;2022-12-07T05:20:40;10.65;;;4.40;;
66957;SDS011;53892;43.258;-2.932;2022-12-07T05:23:06;11.55;;;4.47;;
66957;SDS011;53892;43.258;-2.932;2022-12-07T05:25:32;7.50;;;4.13;;
66957;SDS011;53892;43.258;-2.932;2022-12-07T05:27:58;16.88;;;5.10;;
66957;SDS011;53892;43.258;-2.932;2022-12-07T05:30:25;11.88;;;3.88;;
66957;SDS011;53892;43.258;-2.932;2022-12-07T05:32:51;9.20;;;3.92;;
66957;SDS011;53892;43.258;-2.932;2022-12-07T05:35:18;9.30;;;3.92;;
66957;SDS011;53892;43.258;-2.932;2022-12-07T05:37:44;8.13;;;4.22;;
66957;SDS011;53892;43.258;-2.932;2022-12-07T05:40:11;11.57;;;4.10;;
66957;SDS011;53892;43.258;-2.932;2022-12-07T05:42:37;10.85;;;4.05;;
66957;SDS011;53892;43.258;-2.932;2022-12-07T05:45:04;13.98;;;4.43;;
66957;SDS011;53892;43.258;-2.932;2022-12-07T05:47:30;6.18;;;3.15;;
66957;SDS011;53892;43.258;-2.932;2022-12-07T05:49:56;10.57;;;3.95;;
66957;SDS011;53892;43.258;-2.932;2022-12-07T05:52:22;12.10;;;4.07;;
66957;SDS011;53892;43.258;-2.932;2022-12-07T05:54:48;10.30;;;4.85;;
66957;SDS011;53892;43.258;-2.932;2022-12-07T05:57:15;10.75;;;4.70;;
66957;SDS011;53892;43.258;-2.932;2022-12-07T05:59:41;12.43;;;4.97;;
66957;SDS011;53892;43.258;-2.932;2022-12-07T06:02:09;14.65;;;4.95;;
66957;SDS011;53892;43.258;-2.932;2022-12-07T06:04:36;16.73;;;5.30;;
66957;SDS011;53892;43.258;-2.932;2022-12-07T06:07:03;12.70;;;4.65;;
66957;SDS011;53892;43.258;-2.932;2022-12-07T06:09:29;14.73;;;4.75;;
66957;SDS011;53892;43.258;-2.932;2022-12-07T06:11:56;11.05;;;4.55;;
66957;SDS011;53892;43.258;-2.932;2022-12-07T06:14:41;11.90;;;5.35;;
66957;SDS011;53892;43.258;-2.932;2022-12-07T06:17:07;13.73;;;6.35;;
66957;SDS011;53892;43.258;-2.932;2022-12-07T06:19:33;13.13;;;5.40;;
66957;SDS011;53892;43.258;-2.932;2022-12-07T06:22:00;15.73;;;4.75;;
66957;SDS011;53892;43.258;-2.932;2022-12-07T06:24:27;11.27;;;4.63;;
66957;SDS011;53892;43.258;-2.932;2022-12-07T06:26:53;19.20;;;5.72;;
66957;SDS011;53892;43.258;-2.932;2022-12-07T06:29:20;12.40;;;4.72;;
66957;SDS011;53892;43.258;-2.932;2022-12-07T06:31:47;15.48;;;5.75;;
66957;SDS011;53892;43.258;-2.932;2022-12-07T06:34:17;12.77;;;4.95;;
66957;SDS011;53892;43.258;-2.932;2022-12-07T06:36:43;15.77;;;4.95;;
66957;SDS011;53892;43.258;-2.932;2022-12-07T06:39:11;10.82;;;5.50;;
66957;SDS011;53892;43.258;-2.932;2022-12-07T06:41:37;13.07;;;5.63;;
66957;SDS011;53892;43.258;-2.932;2022-12-07T06:44:07;11.38;;;4.13;;
66957;SDS011;53892;43.258;-2.932;2022-12-07T06:46:33;8.35;;;4.15;;
66957;SDS011;53892;43.258;-2.932;2022-12-07T06:49:01;13.82;;;4.43;;
66957;SDS011;53892;43.258;-2.932;2022-12-07T06:51:27;10.63;;;4.22;;
66957;SDS011;53892;43.258;-2.932;2022-12-07T06:53:53;17.23;;;4.53;;
66957;SDS011;53892;43.258;-2.932;2022-12-07T06:56:19;13.25;;;4.63;;
66957;SDS011;53892;43.258;-2.932;2022-12-07T06:58:45;11.10;;;4.65;;
66957;SDS011;53892;43.258;-2.932;2022-12-07T07:01:12;8.98;;;3.95;;
66957;SDS011;53892;43.258;-2.932;2022-12-07T07:03:39;9.80;;;4.22;;
66957;SDS011;53892;43.258;-2.932;2022-12-07T07:06:05;10.40;;;4.65;;
66957;SDS011;53892;43.258;-2.932;2022-12-07T07:08:32;11.07;;;4.50;;
66957;SDS011;53892;43.258;-2.932;2022-12-07T07:10:59;13.18;;;4.45;;
66957;SDS011;53892;43.258;-2.932;2022-12-07T07:13:26;8.30;;;4.70;;
66957;SDS011;53892;43.258;-2.932;2022-12-07T07:15:52;9.35;;;4.28;;
66957;SDS011;53892;43.258;-2.932;2022-12-07T07:18:18;9.82;;;4.93;;
66957;SDS011;53892;43.258;-2.932;2022-12-07T07:20:44;8.65;;;4.28;;
66957;SDS011;53892;43.258;-2.932;2022-12-07T07:23:10;9.48;;;4.72;;
66957;SDS011;53892;43.258;-2.932;2022-12-07T07:25:37;14.02;;;4.32;;
66957;SDS011;53892;43.258;-2.932;2022-12-07T07:28:03;10.13;;;3.95;;
66957;SDS011;53892;43.258;-2.932;2022-12-07T07:30:29;9.95;;;3.85;;
66957;SDS011;53892;43.258;-2.932;2022-12-07T07:32:58;15.07;;;4.28;;
66957;SDS011;53892;43.258;-2.932;2022-12-07T07:35:25;11.80;;;4.07;;
66957;SDS011;53892;43.258;-2.932;2022-12-07T07:37:51;12.45;;;4.05;;
66957;SDS011;53892;43.258;-2.932;2022-12-07T07:40:18;13.25;;;5.32;;
66957;SDS011;53892;43.258;-2.932;2022-12-07T07:42:46;13.23;;;4.65;;
66957;SDS011;53892;43.258;-2.932;2022-12-07T07:45:13;12.57;;;4.60;;
66957;SDS011;53892;43.258;-2.932;2022-12-07T07:47:39;15.40;;;4.45;;
66957;SDS011;53892;43.258;-2.932;2022-12-07T07:50:05;13.07;;;4.93;;
66957;SDS011;53892;43.258;-2.932;2022-12-07T07:52:32;10.57;;;4.30;;
66957;SDS011;53892;43.258;-2.932;2022-12-07T07:54:58;8.75;;;4.10;;
66957;SDS011;53892;43.258;-2.932;2022-12-07T07:57:24;14.68;;;4.95;;
66957;SDS011;53892;43.258;-2.932;2022-12-07T07:59:50;8.60;;;4.72;;
66957;SDS011;53892;43.258;-2.932;2022-12-07T08:02:17;11.20;;;5.07;;
66957;SDS011;53892;43.258;-2.932;2022-12-07T08:04:44;12.32;;;5.20;;
66957;SDS011;53892;43.258;-2.932;2022-12-07T08:07:11;10.73;;;5.60;;
66957;SDS011;53892;43.258;-2.932;2022-12-07T08:09:37;16.65;;;6.43;;
66957;SDS011;53892;43.258;-2.932;2022-12-07T08:12:03;15.13;;;7.05;;
66957;SDS011;53892;43.258;-2.932;2022-12-07T08:14:30;14.30;;;6.30;;
66957;SDS011;53892;43.258;-2.932;2022-12-07T08:16:56;14.30;;;6.43;;
66957;SDS011;53892;43.258;-2.932;2022-12-07T08:19:22;15.63;;;6.50;;
66957;SDS011;53892;43.258;-2.932;2022-12-07T08:21:48;15.27;;;5.95;;
66957;SDS011;53892;43.258;-2.932;2022-12-07T08:24:15;14.45;;;5.43;;
66957;SDS011;53892;43.258;-2.932;2022-12-07T08:26:41;13.55;;;5.43;;
66957;SDS011;53892;43.258;-2.932;2022-12-07T08:29:08;10.48;;;5.30;;
66957;SDS011;53892;43.258;-2.932;2022-12-07T08:31:34;15.45;;;5.35;;
66957;SDS011;53892;43.258;-2.932;2022-12-07T08:34:00;15.90;;;4.55;;
66957;SDS011;53892;43.258;-2.932;2022-12-07T08:36:26;10.52;;;4.57;;
66957;SDS011;53892;43.258;-2.932;2022-12-07T08:38:52;8.15;;;4.40;;
66957;SDS011;53892;43.258;-2.932;2022-12-07T08:41:19;12.88;;;3.90;;
66957;SDS011;53892;43.258;-2.932;2022-12-07T08:43:45;10.40;;;4.78;;
66957;SDS011;53892;43.258;-2.932;2022-12-07T08:48:39;10.55;;;4.05;;
66957;SDS011;53892;43.258;-2.932;2022-12-07T08:51:06;14.50;;;5.00;;
66957;SDS011;53892;43.258;-2.932;2022-12-07T08:53:33;12.98;;;4.82;;
66957;SDS011;53892;43.258;-2.932;2022-12-07T08:55:59;17.20;;;4.80;;
66957;SDS011;53892;43.258;-2.932;2022-12-07T08:58:25;11.90;;;4.82;;
66957;SDS011;53892;43.258;-2.932;2022-12-07T09:00:52;11.90;;;4.60;;
66957;SDS011;53892;43.258;-2.932;2022-12-07T09:03:18;12.60;;;4.70;;
66957;SDS011;53892;43.258;-2.932;2022-12-07T09:05:44;17.33;;;4.43;;
66957;SDS011;53892;43.258;-2.932;2022-12-07T09:08:10;8.73;;;4.25;;
66957;SDS011;53892;43.258;-2.932;2022-12-07T09:10:36;11.00;;;4.60;;
66957;SDS011;53892;43.258;-2.932;2022-12-07T09:13:03;10.07;;;3.78;;
66957;SDS011;53892;43.258;-2.932;2022-12-07T09:15:29;10.90;;;3.80;;
66957;SDS011;53892;43.258;-2.932;2022-12-07T09:17:56;8.75;;;3.80;;
66957;SDS011;53892;43.258;-2.932;2022-12-07T09:20:22;10.23;;;4.15;;
66957;SDS011;53892;43.258;-2.932;2022-12-07T09:22:48;8.43;;;4.55;;
66957;SDS011;53892;43.258;-2.932;2022-12-07T09:25:15;13.38;;;5.20;;
66957;SDS011;53892;43.258;-2.932;2022-12-07T09:27:41;11.15;;;4.78;;
66957;SDS011;53892;43.258;-2.932;2022-12-07T09:30:07;13.63;;;5.47;;
66957;SDS011;53892;43.258;-2.932;2022-12-07T09:32:34;12.10;;;5.75;;
66957;SDS011;53892;43.258;-2.932;2022-12-07T09:35:00;12.77;;;5.72;;
66957;SDS011;53892;43.258;-2.932;2022-12-07T09:37:26;20.10;;;7.32;;
66957;SDS011;53892;43.258;-2.932;2022-12-07T09:39:52;14.25;;;7.35;;
66957;SDS011;53892;43.258;-2.932;2022-12-07T09:42:26;17.50;;;7.50;;
66957;SDS011;53892;43.258;-2.932;2022-12-07T09:44:53;16.13;;;6.15;;
66957;SDS011;53892;43.258;-2.932;2022-12-07T09:47:19;16.73;;;6.40;;
66957;SDS011;53892;43.258;-2.932;2022-12-07T09:49:45;12.27;;;5.10;;
66957;SDS011;53892;43.258;-2.932;2022-12-07T09:52:25;14.27;;;5.68;;
66957;SDS011;53892;43.258;-2.932;2022-12-07T09:54:52;12.68;;;5.35;;
66957;SDS011;53892;43.258;-2.932;2022-12-07T09:57:25;13.98;;;4.75;;
66957;SDS011;53892;43.258;-2.932;2022-12-07T09:59:54;15.00;;;4.38;;
66957;SDS011;53892;43.258;-2.932;2022-12-07T10:02:25;14.98;;;5.43;;
66957;SDS011;53892;43.258;-2.932;2022-12-07T10:04:53;13.35;;;5.43;;
66957;SDS011;53892;43.258;-2.932;2022-12-07T10:07:19;10.77;;;5.32;;
66957;SDS011;53892;43.258;-2.932;2022-12-07T10:09:45;12.75;;;5.20;;
66957;SDS011;53892;43.258;-2.932;2022-12-07T10:12:11;13.13;;;5.32;;
66957;SDS011;53892;43.258;-2.932;2022-12-07T10:14:39;13.40;;;5.90;;
66957;SDS011;53892;43.258;-2.932;2022-12-07T10:17:40;14.93;;;6.68;;
66957;SDS011;53892;43.258;-2.932;2022-12-07T10:20:08;19.02;;;6.75;;
66957;SDS011;53892;43.258;-2.932;2022-12-07T10:22:38;17.08;;;7.07;;
66957;SDS011;53892;43.258;-2.932;2022-12-07T10:25:08;19.77;;;6.40;;
66957;SDS011;53892;43.258;-2.932;2022-12-07T10:27:34;15.23;;;6.07;;
66957;SDS011;53892;43.258;-2.932;2022-12-07T10:30:01;12.00;;;6.18;;
66957;SDS011;53892;43.258;-2.932;2022-12-07T10:32:34;12.88;;;4.70;;
66957;SDS011;53892;43.258;-2.932;2022-12-07T10:37:51;12.85;;;5.35;;
66957;SDS011;53892;43.258;-2.932;2022-12-07T10:53:28;23.52;;;10.50;;
66957;SDS011;53892;43.258;-2.932;2022-12-07T11:01:30;25.73;;;10.52;;
66957;SDS011;53892;43.258;-2.932;2022-12-07T11:11:54;23.25;;;8.07;;
66957;SDS011;53892;43.258;-2.932;2022-12-07T11:24:12;28.08;;;7.65;;
66957;SDS011;53892;43.258;-2.932;2022-12-07T11:34:24;16.02;;;5.35;;
66957;SDS011;53892;43.258;-2.932;2022-12-07T11:36:54;11.18;;;4.55;;
66957;SDS011;53892;43.258;-2.932;2022-12-07T11:39:25;11.95;;;4.35;;
66957;SDS011;53892;43.258;-2.932;2022-12-07T11:41:53;9.98;;;4.55;;
66957;SDS011;53892;43.258;-2.932;2022-12-07T11:46:51;13.73;;;5.30;;
66957;SDS011;53892;43.258;-2.932;2022-12-07T11:51:51;16.63;;;5.72;;
66957;SDS011;53892;43.258;-2.932;2022-12-07T11:54:19;13.35;;;5.07;;
66957;SDS011;53892;43.258;-2.932;2022-12-07T11:56:48;10.43;;;4.63;;
66957;SDS011;53892;43.258;-2.932;2022-12-07T11:59:29;11.00;;;4.57;;
66957;SDS011;53892;43.258;-2.932;2022-12-07T12:02:16;14.35;;;4.82;;
66957;SDS011;53892;43.258;-2.932;2022-12-07T12:05:27;11.85;;;5.20;;
66957;SDS011;53892;43.258;-2.932;2022-12-07T12:07:34;15.55;;;5.20;;
66957;SDS011;53892;43.258;-2.932;2022-12-07T12:10:04;18.38;;;6.28;;
66957;SDS011;53892;43.258;-2.932;2022-12-07T12:18:05;14.88;;;5.57;;
66957;SDS011;53892;43.258;-2.932;2022-12-07T12:23:07;10.48;;;4.72;;
66957;SDS011;53892;43.258;-2.932;2022-12-07T12:25:41;12.15;;;5.00;;
66957;SDS011;53892;43.258;-2.932;2022-12-07T12:28:18;12.35;;;5.65;;
66957;SDS011;53892;43.258;-2.932;2022-12-07T12:30:46;9.60;;;3.95;;
66957;SDS011;53892;43.258;-2.932;2022-12-07T12:33:29;8.80;;;4.03;;
66957;SDS011;53892;43.258;-2.932;2022-12-07T12:36:57;8.32;;;3.53;;
66957;SDS011;53892;43.258;-2.932;2022-12-07T12:44:24;16.00;;;3.95;;
66957;SDS011;53892;43.258;-2.932;2022-12-07T12:51:49;4.22;;;1.77;;
66957;SDS011;53892;43.258;-2.932;2022-12-07T12:54:22;5.43;;;1.23;;
66957;SDS011;53892;43.258;-2.932;2022-12-07T12:59:24;5.28;;;1.55;;
66957;SDS011;53892;43.258;-2.932;2022-12-07T13:01:52;9.50;;;1.38;;
66957;SDS011;53892;43.258;-2.932;2022-12-07T13:04:27;7.13;;;1.30;;
66957;SDS011;53892;43.258;-2.932;2022-12-07T13:06:54;5.53;;;1.30;;
66957;SDS011;53892;43.258;-2.932;2022-12-07T13:09:21;5.53;;;1.75;;
66957;SDS011;53892;43.258;-2.932;2022-12-07T13:11:48;3.75;;;1.35;;
66957;SDS011;53892;43.258;-2.932;2022-12-07T13:17:00;4.78;;;1.55;;
66957;SDS011;53892;43.258;-2.932;2022-12-07T13:19:52;3.80;;;1.73;;
66957;SDS011;53892;43.258;-2.932;2022-12-07T13:22:34;8.95;;;1.92;;
66957;SDS011;53892;43.258;-2.932;2022-12-07T13:27:37;8.93;;;1.83;;
66957;SDS011;53892;43.258;-2.932;2022-12-07T13:30:14;6.63;;;1.85;;
66957;SDS011;53892;43.258;-2.932;2022-12-07T13:32:41;4.65;;;2.25;;
66957;SDS011;53892;43.258;-2.932;2022-12-07T13:38:16;5.32;;;2.08;;
66957;SDS011;53892;43.258;-2.932;2022-12-07T13:41:02;5.10;;;2.10;;
66957;SDS011;53892;43.258;-2.932;2022-12-07T13:43:29;5.93;;;2.50;;
66957;SDS011;53892;43.258;-2.932;2022-12-07T13:45:58;5.65;;;2.38;;
66957;SDS011;53892;43.258;-2.932;2022-12-07T13:50:55;3.10;;;1.90;;
66957;SDS011;53892;43.258;-2.932;2022-12-07T13:53:21;5.65;;;2.15;;
66957;SDS011;53892;43.258;-2.932;2022-12-07T13:55:47;9.90;;;2.15;;
66957;SDS011;53892;43.258;-2.932;2022-12-07T13:58:14;5.32;;;2.60;;
66957;SDS011;53892;43.258;-2.932;2022-12-07T14:00:40;7.15;;;2.80;;
66957;SDS011;53892;43.258;-2.932;2022-12-07T14:05:40;4.47;;;2.40;;
66957;SDS011;53892;43.258;-2.932;2022-12-07T14:13:03;5.50;;;2.50;;
66957;SDS011;53892;43.258;-2.932;2022-12-07T14:15:33;9.05;;;2.33;;
66957;SDS011;53892;43.258;-2.932;2022-12-07T14:18:01;6.60;;;2.38;;
66957;SDS011;53892;43.258;-2.932;2022-12-07T14:20:30;6.30;;;2.70;;
66957;SDS011;53892;43.258;-2.932;2022-12-07T14:22:56;4.03;;;2.20;;
66957;SDS011;53892;43.258;-2.932;2022-12-07T14:25:23;7.95;;;2.17;;
66957;SDS011;53892;43.258;-2.932;2022-12-07T14:27:54;6.28;;;2.42;;
66957;SDS011;53892;43.258;-2.932;2022-12-07T14:30:21;5.60;;;2.53;;
66957;SDS011;53892;43.258;-2.932;2022-12-07T14:32:50;4.70;;;2.15;;
66957;SDS011;53892;43.258;-2.932;2022-12-07T14:35:18;3.78;;;2.75;;
66957;SDS011;53892;43.258;-2.932;2022-12-07T14:37:46;7.35;;;2.75;;
66957;SDS011;53892;43.258;-2.932;2022-12-07T14:40:13;4.95;;;3.00;;
66957;SDS011;53892;43.258;-2.932;2022-12-07T14:42:39;4.80;;;2.50;;
66957;SDS011;53892;43.258;-2.932;2022-12-07T14:45:11;4.45;;;2.60;;
66957;SDS011;53892;43.258;-2.932;2022-12-07T14:47:38;7.10;;;3.00;;
66957;SDS011;53892;43.258;-2.932;2022-12-07T14:50:05;11.30;;;2.53;;
66957;SDS011;53892;43.258;-2.932;2022-12-07T14:52:31;6.78;;;3.22;;
66957;SDS011;53892;43.258;-2.932;2022-12-07T14:54:57;8.20;;;3.10;;
66957;SDS011;53892;43.258;-2.932;2022-12-07T14:57:23;8.18;;;2.67;;
66957;SDS011;53892;43.258;-2.932;2022-12-07T14:59:50;5.57;;;2.45;;
66957;SDS011;53892;43.258;-2.932;2022-12-07T15:02:16;6.97;;;3.00;;
66957;SDS011;53892;43.258;-2.932;2022-12-07T15:04:42;6.13;;;3.38;;
66957;SDS011;53892;43.258;-2.932;2022-12-07T15:07:16;6.30;;;2.80;;
66957;SDS011;53892;43.258;-2.932;2022-12-07T15:09:44;5.15;;;3.03;;
66957;SDS011;53892;43.258;-2.932;2022-12-07T15:12:10;7.75;;;2.65;;
66957;SDS011;53892;43.258;-2.932;2022-12-07T15:14:36;5.07;;;2.63;;
66957;SDS011;53892;43.258;-2.932;2022-12-07T15:17:03;4.95;;;2.85;;
66957;SDS011;53892;43.258;-2.932;2022-12-07T15:19:29;12.73;;;3.00;;
66957;SDS011;53892;43.258;-2.932;2022-12-07T15:21:55;7.65;;;3.13;;
66957;SDS011;53892;43.258;-2.932;2022-12-07T15:24:22;5.00;;;2.88;;
66957;SDS011;53892;43.258;-2.932;2022-12-07T15:26:49;6.90;;;3.58;;
66957;SDS011;53892;43.258;-2.932;2022-12-07T15:29:15;9.48;;;4.38;;
66957;SDS011;53892;43.258;-2.932;2022-12-07T15:31:42;6.38;;;3.05;;
66957;SDS011;53892;43.258;-2.932;2022-12-07T15:34:08;6.35;;;3.00;;
66957;SDS011;53892;43.258;-2.932;2022-12-07T15:36:34;15.52;;;4.22;;
66957;SDS011;53892;43.258;-2.932;2022-12-07T15:39:00;7.65;;;3.25;;
66957;SDS011;53892;43.258;-2.932;2022-12-07T15:41:26;11.32;;;3.65;;
66957;SDS011;53892;43.258;-2.932;2022-12-07T15:43:53;7.78;;;3.50;;
66957;SDS011;53892;43.258;-2.932;2022-12-07T15:46:38;7.90;;;3.13;;
66957;SDS011;53892;43.258;-2.932;2022-12-07T15:49:09;10.02;;;3.38;;
66957;SDS011;53892;43.258;-2.932;2022-12-07T15:51:36;6.45;;;3.17;;
66957;SDS011;53892;43.258;-2.932;2022-12-07T15:54:02;6.97;;;2.95;;
66957;SDS011;53892;43.258;-2.932;2022-12-07T15:56:28;6.38;;;3.03;;
66957;SDS011;53892;43.258;-2.932;2022-12-07T15:58:55;11.43;;;3.50;;
66957;SDS011;53892;43.258;-2.932;2022-12-07T16:01:22;11.90;;;3.85;;
66957;SDS011;53892;43.258;-2.932;2022-12-07T16:03:48;7.45;;;3.28;;
66957;SDS011;53892;43.258;-2.932;2022-12-07T16:06:17;8.38;;;3.88;;
66957;SDS011;53892;43.258;-2.932;2022-12-07T16:08:44;7.82;;;3.60;;
66957;SDS011;53892;43.258;-2.932;2022-12-07T16:11:11;9.35;;;3.83;;
66957;SDS011;53892;43.258;-2.932;2022-12-07T16:13:37;7.82;;;3.45;;
66957;SDS011;53892;43.258;-2.932;2022-12-07T16:16:05;8.88;;;3.63;;
66957;SDS011;53892;43.258;-2.932;2022-12-07T16:18:32;9.45;;;3.72;;
66957;SDS011;53892;43.258;-2.932;2022-12-07T16:20:58;8.40;;;3.60;;
66957;SDS011;53892;43.258;-2.932;2022-12-07T16:23:24;15.07;;;4.47;;
66957;SDS011;53892;43.258;-2.932;2022-12-07T16:25:50;9.40;;;3.78;;
66957;SDS011;53892;43.258;-2.932;2022-12-07T16:28:17;6.00;;;3.40;;
66957;SDS011;53892;43.258;-2.932;2022-12-07T16:30:43;8.63;;;3.90;;
66957;SDS011;53892;43.258;-2.932;2022-12-07T16:33:09;13.20;;;4.28;;
66957;SDS011;53892;43.258;-2.932;2022-12-07T16:35:38;13.35;;;5.55;;
66957;SDS011;53892;43.258;-2.932;2022-12-07T16:38:08;9.10;;;4.23;;